sensor_id;sensor_type;location;lat;lon;timestamp;temperature;humidity
28175;SHT30;59417;44.788;10.334;2022-07-23T00:00:50;30.85;43.02
28175;SHT30;59417;44.788;10.334;2022-07-23T00:03:15;30.85;43.32
28175;SHT30;59417;44.788;10.334;2022-07-23T00:05:41;30.71;43.19
28175;SHT30;59417;44.788;10.334;2022-07-23T00:08:07;30.71;43.33
28175;SHT30;59417;44.788;10.334;2022-07-23T00:10:33;30.59;43.61
28175;SHT30;59417;44.788;10.334;2022-07-23T00:12:59;30.52;44.37
28175;SHT30;59417;44.788;10.334;2022-07-23T00:15:25;30.44;44.94
28175;SHT30;59417;44.788;10.334;2022-07-23T00:17:50;30.36;45.05
28175;SHT30;59417;44.788;10.334;2022-07-23T00:20:16;30.48;44.94
28175;SHT30;59417;44.788;10.334;2022-07-23T00:22:55;30.54;44.98
28175;SHT30;59417;44.788;10.334;2022-07-23T00:25:22;30.58;45.06
28175;SHT30;59417;44.788;10.334;2022-07-23T00:27:48;30.45;45.36
28175;SHT30;59417;44.788;10.334;2022-07-23T00:30:23;30.48;44.98
28175;SHT30;59417;44.788;10.334;2022-07-23T00:32:51;30.47;44.97
28175;SHT30;59417;44.788;10.334;2022-07-23T00:35:20;30.41;44.92
28175;SHT30;59417;44.788;10.334;2022-07-23T00:37:47;30.34;45.62
28175;SHT30;59417;44.788;10.334;2022-07-23T00:40:12;30.36;44.87
28175;SHT30;59417;44.788;10.334;2022-07-23T00:42:41;30.31;44.85
28175;SHT30;59417;44.788;10.334;2022-07-23T00:45:08;30.28;44.62
28175;SHT30;59417;44.788;10.334;2022-07-23T00:47:34;30.17;44.61
28175;SHT30;59417;44.788;10.334;2022-07-23T00:50:00;30.11;44.49
28175;SHT30;59417;44.788;10.334;2022-07-23T00:52:29;30.05;44.26
28175;SHT30;59417;44.788;10.334;2022-07-23T00:54:55;30.07;43.97
28175;SHT30;59417;44.788;10.334;2022-07-23T00:57:21;29.96;44.61
28175;SHT30;59417;44.788;10.334;2022-07-23T00:59:47;29.89;44.99
28175;SHT30;59417;44.788;10.334;2022-07-23T01:02:13;29.98;43.54
28175;SHT30;59417;44.788;10.334;2022-07-23T01:04:41;29.91;43.62
28175;SHT30;59417;44.788;10.334;2022-07-23T01:07:07;29.84;43.53
28175;SHT30;59417;44.788;10.334;2022-07-23T01:09:33;29.78;43.64
28175;SHT30;59417;44.788;10.334;2022-07-23T01:11:59;29.74;43.57
28175;SHT30;59417;44.788;10.334;2022-07-23T01:14:25;29.71;43.84
28175;SHT30;59417;44.788;10.334;2022-07-23T01:16:51;29.69;43.55
28175;SHT30;59417;44.788;10.334;2022-07-23T01:19:17;29.67;43.59
28175;SHT30;59417;44.788;10.334;2022-07-23T01:21:45;29.59;43.84
28175;SHT30;59417;44.788;10.334;2022-07-23T01:24:11;29.53;44.14
28175;SHT30;59417;44.788;10.334;2022-07-23T01:26:44;29.49;43.93
28175;SHT30;59417;44.788;10.334;2022-07-23T01:29:10;29.51;43.99
28175;SHT30;59417;44.788;10.334;2022-07-23T01:31:37;29.51;43.54
28175;SHT30;59417;44.788;10.334;2022-07-23T01:34:03;29.46;43.74
28175;SHT30;59417;44.788;10.334;2022-07-23T01:36:30;29.25;43.78
28175;SHT30;59417;44.788;10.334;2022-07-23T01:38:56;29.25;43.86
28175;SHT30;59417;44.788;10.334;2022-07-23T01:41:22;29.22;44.00
28175;SHT30;59417;44.788;10.334;2022-07-23T01:43:47;29.05;44.60
28175;SHT30;59417;44.788;10.334;2022-07-23T01:46:14;29.00;44.61
28175;SHT30;59417;44.788;10.334;2022-07-23T01:48:44;29.08;43.93
28175;SHT30;59417;44.788;10.334;2022-07-23T01:51:43;28.91;43.90
28175;SHT30;59417;44.788;10.334;2022-07-23T01:54:31;28.91;43.54
28175;SHT30;59417;44.788;10.334;2022-07-23T01:56:59;28.84;43.42
28175;SHT30;59417;44.788;10.334;2022-07-23T01:59:26;28.77;43.66
28175;SHT30;59417;44.788;10.334;2022-07-23T02:01:52;28.78;43.61
28175;SHT30;59417;44.788;10.334;2022-07-23T02:04:22;28.72;43.81
28175;SHT30;59417;44.788;10.334;2022-07-23T02:06:48;28.43;44.34
28175;SHT30;59417;44.788;10.334;2022-07-23T02:09:14;28.41;44.48
28175;SHT30;59417;44.788;10.334;2022-07-23T02:11:40;28.54;44.08
28175;SHT30;59417;44.788;10.334;2022-07-23T02:14:06;28.58;44.79
28175;SHT30;59417;44.788;10.334;2022-07-23T02:16:32;28.51;44.39
28175;SHT30;59417;44.788;10.334;2022-07-23T02:19:02;28.48;45.02
28175;SHT30;59417;44.788;10.334;2022-07-23T02:21:27;28.64;44.42
28175;SHT30;59417;44.788;10.334;2022-07-23T02:23:53;28.52;44.02
28175;SHT30;59417;44.788;10.334;2022-07-23T02:26:19;28.57;43.66
28175;SHT30;59417;44.788;10.334;2022-07-23T02:28:46;28.54;42.42
28175;SHT30;59417;44.788;10.334;2022-07-23T02:31:12;28.60;41.79
28175;SHT30;59417;44.788;10.334;2022-07-23T02:33:38;28.54;42.29
28175;SHT30;59417;44.788;10.334;2022-07-23T02:36:04;28.47;42.56
28175;SHT30;59417;44.788;10.334;2022-07-23T02:38:30;28.44;41.05
28175;SHT30;59417;44.788;10.334;2022-07-23T02:40:56;28.64;41.19
28175;SHT30;59417;44.788;10.334;2022-07-23T02:43:22;28.72;39.41
28175;SHT30;59417;44.788;10.334;2022-07-23T02:45:47;28.72;39.18
28175;SHT30;59417;44.788;10.334;2022-07-23T02:48:13;28.75;39.29
28175;SHT30;59417;44.788;10.334;2022-07-23T02:50:42;28.79;39.86
28175;SHT30;59417;44.788;10.334;2022-07-23T02:53:08;28.72;39.76
28175;SHT30;59417;44.788;10.334;2022-07-23T02:55:34;28.68;39.36
28175;SHT30;59417;44.788;10.334;2022-07-23T02:58:01;28.71;39.33
28175;SHT30;59417;44.788;10.334;2022-07-23T03:00:27;28.71;39.80
28175;SHT30;59417;44.788;10.334;2022-07-23T03:02:53;28.61;39.47
28175;SHT30;59417;44.788;10.334;2022-07-23T03:05:19;28.61;40.05
28175;SHT30;59417;44.788;10.334;2022-07-23T03:07:44;28.67;39.20
28175;SHT30;59417;44.788;10.334;2022-07-23T03:10:10;28.71;40.05
28175;SHT30;59417;44.788;10.334;2022-07-23T03:12:36;28.79;39.30
28175;SHT30;59417;44.788;10.334;2022-07-23T03:15:02;28.69;39.14
28175;SHT30;59417;44.788;10.334;2022-07-23T03:17:28;28.61;39.49
28175;SHT30;59417;44.788;10.334;2022-07-23T03:19:53;28.63;39.05
28175;SHT30;59417;44.788;10.334;2022-07-23T03:22:19;28.71;38.65
28175;SHT30;59417;44.788;10.334;2022-07-23T03:24:45;28.55;39.19
28175;SHT30;59417;44.788;10.334;2022-07-23T03:27:26;28.57;38.37
28175;SHT30;59417;44.788;10.334;2022-07-23T03:29:53;28.65;38.58
28175;SHT30;59417;44.788;10.334;2022-07-23T03:32:20;28.60;38.82
28175;SHT30;59417;44.788;10.334;2022-07-23T03:34:45;28.57;39.02
28175;SHT30;59417;44.788;10.334;2022-07-23T03:37:12;28.49;38.56
28175;SHT30;59417;44.788;10.334;2022-07-23T03:39:42;28.55;37.40
28175;SHT30;59417;44.788;10.334;2022-07-23T03:42:07;28.71;36.75
28175;SHT30;59417;44.788;10.334;2022-07-23T03:44:33;28.81;36.61
28175;SHT30;59417;44.788;10.334;2022-07-23T03:47:02;28.75;36.63
28175;SHT30;59417;44.788;10.334;2022-07-23T03:49:46;28.78;36.28
28175;SHT30;59417;44.788;10.334;2022-07-23T03:52:12;28.74;36.34
28175;SHT30;59417;44.788;10.334;2022-07-23T03:54:37;28.69;36.88
28175;SHT30;59417;44.788;10.334;2022-07-23T03:57:03;28.67;36.31
28175;SHT30;59417;44.788;10.334;2022-07-23T03:59:29;28.74;36.16
28175;SHT30;59417;44.788;10.334;2022-07-23T04:01:54;28.82;35.79
28175;SHT30;59417;44.788;10.334;2022-07-23T04:04:20;28.81;35.81
28175;SHT30;59417;44.788;10.334;2022-07-23T04:06:46;28.79;35.88
28175;SHT30;59417;44.788;10.334;2022-07-23T04:09:14;28.84;35.88
28175;SHT30;59417;44.788;10.334;2022-07-23T04:11:40;28.77;36.34
28175;SHT30;59417;44.788;10.334;2022-07-23T04:14:19;28.74;36.18
28175;SHT30;59417;44.788;10.334;2022-07-23T04:16:45;28.74;36.22
28175;SHT30;59417;44.788;10.334;2022-07-23T04:19:11;28.68;36.31
28175;SHT30;59417;44.788;10.334;2022-07-23T04:21:50;28.61;36.32
28175;SHT30;59417;44.788;10.334;2022-07-23T04:24:15;28.63;36.50
28175;SHT30;59417;44.788;10.334;2022-07-23T04:26:41;28.57;36.46
28175;SHT30;59417;44.788;10.334;2022-07-23T04:29:10;28.72;36.23
28175;SHT30;59417;44.788;10.334;2022-07-23T04:31:41;28.77;35.83
28175;SHT30;59417;44.788;10.334;2022-07-23T04:34:06;28.74;35.95
28175;SHT30;59417;44.788;10.334;2022-07-23T04:36:32;28.72;36.19
28175;SHT30;59417;44.788;10.334;2022-07-23T04:38:58;28.71;36.10
28175;SHT30;59417;44.788;10.334;2022-07-23T04:41:25;28.75;36.09
28175;SHT30;59417;44.788;10.334;2022-07-23T04:43:50;28.77;36.19
28175;SHT30;59417;44.788;10.334;2022-07-23T04:46:16;28.79;36.14
28175;SHT30;59417;44.788;10.334;2022-07-23T04:48:54;28.82;36.22
28175;SHT30;59417;44.788;10.334;2022-07-23T04:51:19;28.81;36.34
28175;SHT30;59417;44.788;10.334;2022-07-23T04:53:45;28.91;36.39
28175;SHT30;59417;44.788;10.334;2022-07-23T04:56:11;28.94;36.61
28175;SHT30;59417;44.788;10.334;2022-07-23T04:58:37;28.95;36.97
28175;SHT30;59417;44.788;10.334;2022-07-23T05:01:04;28.87;38.17
28175;SHT30;59417;44.788;10.334;2022-07-23T05:03:33;28.81;38.78
28175;SHT30;59417;44.788;10.334;2022-07-23T05:05:58;28.78;38.99
28175;SHT30;59417;44.788;10.334;2022-07-23T05:08:24;28.85;38.97
28175;SHT30;59417;44.788;10.334;2022-07-23T05:10:53;28.79;39.03
28175;SHT30;59417;44.788;10.334;2022-07-23T05:13:20;28.88;37.80
28175;SHT30;59417;44.788;10.334;2022-07-23T05:15:46;29.03;38.26
28175;SHT30;59417;44.788;10.334;2022-07-23T05:18:12;29.03;38.41
28175;SHT30;59417;44.788;10.334;2022-07-23T05:20:38;28.85;39.25
28175;SHT30;59417;44.788;10.334;2022-07-23T05:23:04;28.95;38.97
28175;SHT30;59417;44.788;10.334;2022-07-23T05:25:30;28.94;38.59
28175;SHT30;59417;44.788;10.334;2022-07-23T05:27:56;28.81;40.20
28175;SHT30;59417;44.788;10.334;2022-07-23T05:30:22;28.72;40.35
28175;SHT30;59417;44.788;10.334;2022-07-23T05:32:51;28.67;41.15
28175;SHT30;59417;44.788;10.334;2022-07-23T05:35:17;28.69;41.05
28175;SHT30;59417;44.788;10.334;2022-07-23T05:37:53;28.77;40.88
28175;SHT30;59417;44.788;10.334;2022-07-23T05:40:19;28.95;40.76
28175;SHT30;59417;44.788;10.334;2022-07-23T05:42:45;28.94;38.83
28175;SHT30;59417;44.788;10.334;2022-07-23T05:45:11;28.92;39.43
28175;SHT30;59417;44.788;10.334;2022-07-23T05:47:45;28.96;38.41
28175;SHT30;59417;44.788;10.334;2022-07-23T05:50:14;28.89;38.44
28175;SHT30;59417;44.788;10.334;2022-07-23T05:52:44;28.89;39.54
28175;SHT30;59417;44.788;10.334;2022-07-23T05:55:28;28.91;38.84
28175;SHT30;59417;44.788;10.334;2022-07-23T05:57:58;29.02;38.02
28175;SHT30;59417;44.788;10.334;2022-07-23T06:00:26;28.98;38.09
28175;SHT30;59417;44.788;10.334;2022-07-23T06:02:52;29.03;38.04
28175;SHT30;59417;44.788;10.334;2022-07-23T06:05:18;29.06;38.33
28175;SHT30;59417;44.788;10.334;2022-07-23T06:07:45;29.18;38.22
28175;SHT30;59417;44.788;10.334;2022-07-23T06:10:15;29.22;37.91
28175;SHT30;59417;44.788;10.334;2022-07-23T06:12:41;29.22;38.05
28175;SHT30;59417;44.788;10.334;2022-07-23T06:15:13;29.23;37.92
28175;SHT30;59417;44.788;10.334;2022-07-23T06:17:45;29.22;38.00
28175;SHT30;59417;44.788;10.334;2022-07-23T06:20:11;29.13;37.88
28175;SHT30;59417;44.788;10.334;2022-07-23T06:22:39;29.16;38.30
28175;SHT30;59417;44.788;10.334;2022-07-23T06:25:05;29.16;38.38
28175;SHT30;59417;44.788;10.334;2022-07-23T06:27:31;29.25;38.60
28175;SHT30;59417;44.788;10.334;2022-07-23T06:30:00;29.32;38.71
28175;SHT30;59417;44.788;10.334;2022-07-23T06:32:28;29.40;38.25
28175;SHT30;59417;44.788;10.334;2022-07-23T06:34:54;29.43;38.00
28175;SHT30;59417;44.788;10.334;2022-07-23T06:37:22;29.46;37.44
28175;SHT30;59417;44.788;10.334;2022-07-23T06:39:58;29.50;38.68
28175;SHT30;59417;44.788;10.334;2022-07-23T06:42:23;29.56;38.08
28175;SHT30;59417;44.788;10.334;2022-07-23T06:45:08;29.66;38.00
28175;SHT30;59417;44.788;10.334;2022-07-23T06:47:37;29.76;37.48
28175;SHT30;59417;44.788;10.334;2022-07-23T06:50:04;29.81;37.32
28175;SHT30;59417;44.788;10.334;2022-07-23T06:52:30;29.86;36.17
28175;SHT30;59417;44.788;10.334;2022-07-23T06:55:04;29.86;37.05
28175;SHT30;59417;44.788;10.334;2022-07-23T06:57:30;29.96;36.52
28175;SHT30;59417;44.788;10.334;2022-07-23T06:59:56;30.00;37.28
28175;SHT30;59417;44.788;10.334;2022-07-23T07:02:22;30.05;38.02
28175;SHT30;59417;44.788;10.334;2022-07-23T07:04:48;30.14;37.49
28175;SHT30;59417;44.788;10.334;2022-07-23T07:07:19;30.08;37.80
28175;SHT30;59417;44.788;10.334;2022-07-23T07:09:45;30.17;37.78
28175;SHT30;59417;44.788;10.334;2022-07-23T07:12:10;30.27;38.14
28175;SHT30;59417;44.788;10.334;2022-07-23T07:14:37;30.27;37.93
28175;SHT30;59417;44.788;10.334;2022-07-23T07:17:03;30.34;38.14
28175;SHT30;59417;44.788;10.334;2022-07-23T07:19:31;30.44;38.39
28175;SHT30;59417;44.788;10.334;2022-07-23T07:21:57;30.56;38.88
28175;SHT30;59417;44.788;10.334;2022-07-23T07:24:22;30.55;39.19
28175;SHT30;59417;44.788;10.334;2022-07-23T07:26:48;30.55;39.35
28175;SHT30;59417;44.788;10.334;2022-07-23T07:29:14;30.61;39.42
28175;SHT30;59417;44.788;10.334;2022-07-23T07:31:40;30.58;40.20
28175;SHT30;59417;44.788;10.334;2022-07-23T07:34:05;30.66;39.95
28175;SHT30;59417;44.788;10.334;2022-07-23T07:36:31;30.83;41.08
28175;SHT30;59417;44.788;10.334;2022-07-23T07:38:58;30.82;41.74
28175;SHT30;59417;44.788;10.334;2022-07-23T07:41:23;30.86;42.50
28175;SHT30;59417;44.788;10.334;2022-07-23T07:43:51;30.85;42.34
28175;SHT30;59417;44.788;10.334;2022-07-23T07:46:17;30.86;42.90
28175;SHT30;59417;44.788;10.334;2022-07-23T07:48:42;31.02;42.08
28175;SHT30;59417;44.788;10.334;2022-07-23T07:51:08;30.90;43.10
28175;SHT30;59417;44.788;10.334;2022-07-23T07:53:35;30.90;43.95
28175;SHT30;59417;44.788;10.334;2022-07-23T07:56:00;31.06;42.39
28175;SHT30;59417;44.788;10.334;2022-07-23T07:58:29;31.16;42.70
28175;SHT30;59417;44.788;10.334;2022-07-23T08:00:54;31.09;43.47
28175;SHT30;59417;44.788;10.334;2022-07-23T08:03:20;31.17;43.22
28175;SHT30;59417;44.788;10.334;2022-07-23T08:05:46;31.20;43.47
28175;SHT30;59417;44.788;10.334;2022-07-23T08:08:11;31.20;43.42
28175;SHT30;59417;44.788;10.334;2022-07-23T08:10:40;31.29;44.33
28175;SHT30;59417;44.788;10.334;2022-07-23T08:13:06;31.53;44.11
28175;SHT30;59417;44.788;10.334;2022-07-23T08:15:31;31.56;44.11
28175;SHT30;59417;44.788;10.334;2022-07-23T08:17:57;31.64;43.86
28175;SHT30;59417;44.788;10.334;2022-07-23T08:20:23;31.56;43.49
28175;SHT30;59417;44.788;10.334;2022-07-23T08:22:59;31.60;43.54
28175;SHT30;59417;44.788;10.334;2022-07-23T08:25:29;31.56;42.94
28175;SHT30;59417;44.788;10.334;2022-07-23T08:27:59;31.70;41.86
28175;SHT30;59417;44.788;10.334;2022-07-23T08:30:26;31.61;41.83
28175;SHT30;59417;44.788;10.334;2022-07-23T08:33:03;31.76;42.04
28175;SHT30;59417;44.788;10.334;2022-07-23T08:35:33;31.81;41.98
28175;SHT30;59417;44.788;10.334;2022-07-23T08:38:01;31.85;42.29
28175;SHT30;59417;44.788;10.334;2022-07-23T08:40:29;31.92;42.19
28175;SHT30;59417;44.788;10.334;2022-07-23T08:42:55;31.81;41.79
28175;SHT30;59417;44.788;10.334;2022-07-23T08:45:22;31.74;41.73
28175;SHT30;59417;44.788;10.334;2022-07-23T08:47:53;31.84;41.85
28175;SHT30;59417;44.788;10.334;2022-07-23T08:50:19;31.80;40.87
28175;SHT30;59417;44.788;10.334;2022-07-23T08:52:45;31.89;41.38
28175;SHT30;59417;44.788;10.334;2022-07-23T08:55:12;31.71;42.73
28175;SHT30;59417;44.788;10.334;2022-07-23T08:57:37;31.74;43.47
28175;SHT30;59417;44.788;10.334;2022-07-23T09:00:05;31.94;41.85
28175;SHT30;59417;44.788;10.334;2022-07-23T09:02:38;31.87;42.78
28175;SHT30;59417;44.788;10.334;2022-07-23T09:05:04;31.94;43.01
28175;SHT30;59417;44.788;10.334;2022-07-23T09:07:30;31.91;40.95
28175;SHT30;59417;44.788;10.334;2022-07-23T09:10:15;31.87;41.15
28175;SHT30;59417;44.788;10.334;2022-07-23T09:12:41;31.99;42.03
28175;SHT30;59417;44.788;10.334;2022-07-23T09:15:08;32.12;42.98
28175;SHT30;59417;44.788;10.334;2022-07-23T09:17:41;32.24;42.73
28175;SHT30;59417;44.788;10.334;2022-07-23T09:20:14;32.35;43.51
28175;SHT30;59417;44.788;10.334;2022-07-23T09:22:47;32.38;40.78
28175;SHT30;59417;44.788;10.334;2022-07-23T09:25:15;32.43;43.31
28175;SHT30;59417;44.788;10.334;2022-07-23T09:27:56;32.42;44.51
28175;SHT30;59417;44.788;10.334;2022-07-23T09:30:24;32.42;43.86
28175;SHT30;59417;44.788;10.334;2022-07-23T09:33:10;32.51;43.53
28175;SHT30;59417;44.788;10.334;2022-07-23T09:35:52;32.65;42.88
28175;SHT30;59417;44.788;10.334;2022-07-23T09:38:19;32.60;43.49
28175;SHT30;59417;44.788;10.334;2022-07-23T09:40:46;32.76;43.23
28175;SHT30;59417;44.788;10.334;2022-07-23T09:43:26;32.76;43.12
28175;SHT30;59417;44.788;10.334;2022-07-23T09:45:53;32.87;41.37
28175;SHT30;59417;44.788;10.334;2022-07-23T09:48:18;32.86;41.98
28175;SHT30;59417;44.788;10.334;2022-07-23T09:50:44;32.90;42.58
28175;SHT30;59417;44.788;10.334;2022-07-23T09:53:30;32.95;43.34
28175;SHT30;59417;44.788;10.334;2022-07-23T09:55:58;32.96;43.43
28175;SHT30;59417;44.788;10.334;2022-07-23T09:58:25;33.04;43.95
28175;SHT30;59417;44.788;10.334;2022-07-23T10:00:52;33.27;42.22
28175;SHT30;59417;44.788;10.334;2022-07-23T10:03:19;33.37;42.07
28175;SHT30;59417;44.788;10.334;2022-07-23T10:06:30;33.30;39.43
28175;SHT30;59417;44.788;10.334;2022-07-23T10:09:39;33.29;40.80
28175;SHT30;59417;44.788;10.334;2022-07-23T10:12:32;33.16;42.19
28175;SHT30;59417;44.788;10.334;2022-07-23T10:15:01;33.20;43.30
28175;SHT30;59417;44.788;10.334;2022-07-23T10:17:29;33.47;41.96
28175;SHT30;59417;44.788;10.334;2022-07-23T10:19:55;33.71;41.29
28175;SHT30;59417;44.788;10.334;2022-07-23T10:22:23;33.84;41.27
28175;SHT30;59417;44.788;10.334;2022-07-23T10:25:10;33.92;40.31
28175;SHT30;59417;44.788;10.334;2022-07-23T10:33:38;33.98;39.38
28175;SHT30;59417;44.788;10.334;2022-07-23T10:36:49;34.02;38.24
28175;SHT30;59417;44.788;10.334;2022-07-23T10:39:22;34.09;38.07
28175;SHT30;59417;44.788;10.334;2022-07-23T10:41:50;34.09;39.69
28175;SHT30;59417;44.788;10.334;2022-07-23T10:44:20;34.15;38.14
28175;SHT30;59417;44.788;10.334;2022-07-23T10:47:04;34.19;37.99
28175;SHT30;59417;44.788;10.334;2022-07-23T10:49:36;34.28;39.13
28175;SHT30;59417;44.788;10.334;2022-07-23T10:54:44;34.43;38.33
28175;SHT30;59417;44.788;10.334;2022-07-23T10:57:11;34.45;39.09
28175;SHT30;59417;44.788;10.334;2022-07-23T11:02:34;34.51;38.64
28175;SHT30;59417;44.788;10.334;2022-07-23T11:07:33;34.66;38.78
28175;SHT30;59417;44.788;10.334;2022-07-23T11:09:59;34.80;37.79
28175;SHT30;59417;44.788;10.334;2022-07-23T11:15:10;34.94;36.79
28175;SHT30;59417;44.788;10.334;2022-07-23T11:17:58;35.08;36.89
28175;SHT30;59417;44.788;10.334;2022-07-23T11:20:33;35.10;35.81
28175;SHT30;59417;44.788;10.334;2022-07-23T11:23:04;35.06;35.90
28175;SHT30;59417;44.788;10.334;2022-07-23T11:25:34;35.03;35.53
28175;SHT30;59417;44.788;10.334;2022-07-23T11:28:14;35.10;35.99
28175;SHT30;59417;44.788;10.334;2022-07-23T11:30:45;35.15;35.76
28175;SHT30;59417;44.788;10.334;2022-07-23T11:35:47;35.15;38.12
28175;SHT30;59417;44.788;10.334;2022-07-23T11:40:44;35.34;36.36
28175;SHT30;59417;44.788;10.334;2022-07-23T11:43:11;35.26;36.60
28175;SHT30;59417;44.788;10.334;2022-07-23T11:45:45;35.48;37.61
28175;SHT30;59417;44.788;10.334;2022-07-23T11:48:22;35.73;36.91
28175;SHT30;59417;44.788;10.334;2022-07-23T11:50:50;35.91;35.89
28175;SHT30;59417;44.788;10.334;2022-07-23T11:53:34;35.98;35.91
28175;SHT30;59417;44.788;10.334;2022-07-23T11:56:11;36.05;36.60
28175;SHT30;59417;44.788;10.334;2022-07-23T11:58:37;36.24;35.33
28175;SHT30;59417;44.788;10.334;2022-07-23T12:01:03;36.09;35.42
28175;SHT30;59417;44.788;10.334;2022-07-23T12:03:29;36.16;35.79
28175;SHT30;59417;44.788;10.334;2022-07-23T12:05:59;36.35;36.22
28175;SHT30;59417;44.788;10.334;2022-07-23T12:08:25;36.53;35.90
28175;SHT30;59417;44.788;10.334;2022-07-23T12:10:51;36.73;34.96
28175;SHT30;59417;44.788;10.334;2022-07-23T12:13:18;36.66;34.34
28175;SHT30;59417;44.788;10.334;2022-07-23T12:15:51;36.63;35.14
28175;SHT30;59417;44.788;10.334;2022-07-23T12:18:24;36.75;35.51
28175;SHT30;59417;44.788;10.334;2022-07-23T12:20:53;36.63;34.00
28175;SHT30;59417;44.788;10.334;2022-07-23T12:23:20;36.75;35.30
28175;SHT30;59417;44.788;10.334;2022-07-23T12:26:01;36.84;34.85
28175;SHT30;59417;44.788;10.334;2022-07-23T12:28:28;36.88;35.23
28175;SHT30;59417;44.788;10.334;2022-07-23T12:30:59;36.77;33.88
28175;SHT30;59417;44.788;10.334;2022-07-23T12:35:57;36.93;34.11
28175;SHT30;59417;44.788;10.334;2022-07-23T12:38:26;36.88;33.97
28175;SHT30;59417;44.788;10.334;2022-07-23T12:40:57;36.39;34.93
28175;SHT30;59417;44.788;10.334;2022-07-23T12:43:29;36.60;35.82
28175;SHT30;59417;44.788;10.334;2022-07-23T12:46:06;36.70;35.02
28175;SHT30;59417;44.788;10.334;2022-07-23T12:51:25;37.13;34.20
28175;SHT30;59417;44.788;10.334;2022-07-23T12:56:34;37.42;34.84
28175;SHT30;59417;44.788;10.334;2022-07-23T13:01:40;37.65;34.30
28175;SHT30;59417;44.788;10.334;2022-07-23T13:04:11;37.77;34.93
28175;SHT30;59417;44.788;10.334;2022-07-23T13:06:42;37.86;34.67
28175;SHT30;59417;44.788;10.334;2022-07-23T13:09:12;37.89;33.64
28175;SHT30;59417;44.788;10.334;2022-07-23T13:11:42;37.98;34.00
28175;SHT30;59417;44.788;10.334;2022-07-23T13:14:08;38.04;33.92
28175;SHT30;59417;44.788;10.334;2022-07-23T13:16:34;37.99;34.47
28175;SHT30;59417;44.788;10.334;2022-07-23T13:19:00;37.85;33.95
28175;SHT30;59417;44.788;10.334;2022-07-23T13:21:28;37.65;32.93
28175;SHT30;59417;44.788;10.334;2022-07-23T13:23:54;37.58;34.60
28175;SHT30;59417;44.788;10.334;2022-07-23T13:26:20;37.69;34.58
28175;SHT30;59417;44.788;10.334;2022-07-23T13:28:46;37.69;33.83
28175;SHT30;59417;44.788;10.334;2022-07-23T13:31:12;37.60;34.14
28175;SHT30;59417;44.788;10.334;2022-07-23T13:33:38;37.57;34.60
28175;SHT30;59417;44.788;10.334;2022-07-23T13:36:04;37.44;33.80
28175;SHT30;59417;44.788;10.334;2022-07-23T13:38:30;36.94;34.22
28175;SHT30;59417;44.788;10.334;2022-07-23T13:40:56;37.06;35.74
28175;SHT30;59417;44.788;10.334;2022-07-23T13:43:23;37.21;35.01
28175;SHT30;59417;44.788;10.334;2022-07-23T13:45:50;37.18;35.29
28175;SHT30;59417;44.788;10.334;2022-07-23T13:48:17;37.28;35.44
28175;SHT30;59417;44.788;10.334;2022-07-23T13:50:43;36.91;34.83
28175;SHT30;59417;44.788;10.334;2022-07-23T13:53:11;36.77;34.78
28175;SHT30;59417;44.788;10.334;2022-07-23T13:55:38;36.57;35.59
28175;SHT30;59417;44.788;10.334;2022-07-23T13:58:06;36.50;36.05
28175;SHT30;59417;44.788;10.334;2022-07-23T14:00:33;36.53;35.03
28175;SHT30;59417;44.788;10.334;2022-07-23T14:03:00;36.67;35.64
28175;SHT30;59417;44.788;10.334;2022-07-23T14:05:26;36.67;35.89
28175;SHT30;59417;44.788;10.334;2022-07-23T14:07:52;36.88;35.80
28175;SHT30;59417;44.788;10.334;2022-07-23T14:10:19;36.75;35.73
28175;SHT30;59417;44.788;10.334;2022-07-23T14:12:47;36.73;35.92
28175;SHT30;59417;44.788;10.334;2022-07-23T14:15:33;36.79;35.15
28175;SHT30;59417;44.788;10.334;2022-07-23T14:17:58;36.83;36.27
28175;SHT30;59417;44.788;10.334;2022-07-23T14:20:44;36.97;36.27
28175;SHT30;59417;44.788;10.334;2022-07-23T14:23:18;37.11;35.53
28175;SHT30;59417;44.788;10.334;2022-07-23T14:25:44;36.82;35.66
28175;SHT30;59417;44.788;10.334;2022-07-23T14:28:10;36.86;34.98
28175;SHT30;59417;44.788;10.334;2022-07-23T14:30:37;36.83;35.08
28175;SHT30;59417;44.788;10.334;2022-07-23T14:33:05;36.79;35.22
28175;SHT30;59417;44.788;10.334;2022-07-23T14:35:31;36.84;36.07
28175;SHT30;59417;44.788;10.334;2022-07-23T14:37:57;37.10;36.15
28175;SHT30;59417;44.788;10.334;2022-07-23T14:40:23;37.35;34.65
28175;SHT30;59417;44.788;10.334;2022-07-23T14:42:52;37.51;31.95
28175;SHT30;59417;44.788;10.334;2022-07-23T14:45:18;37.57;31.62
28175;SHT30;59417;44.788;10.334;2022-07-23T14:47:43;37.71;32.04
28175;SHT30;59417;44.788;10.334;2022-07-23T14:53:30;37.47;30.15
28175;SHT30;59417;44.788;10.334;2022-07-23T14:56:11;37.35;30.09
28175;SHT30;59417;44.788;10.334;2022-07-23T14:58:57;36.91;30.50
28175;SHT30;59417;44.788;10.334;2022-07-23T15:01:57;36.90;31.07
28175;SHT30;59417;44.788;10.334;2022-07-23T15:04:30;36.96;30.98
28175;SHT30;59417;44.788;10.334;2022-07-23T15:07:02;37.07;31.33
28175;SHT30;59417;44.788;10.334;2022-07-23T15:12:59;36.70;31.21
28175;SHT30;59417;44.788;10.334;2022-07-23T15:15:47;36.67;30.86
28175;SHT30;59417;44.788;10.334;2022-07-23T15:18:13;36.56;31.14
28175;SHT30;59417;44.788;10.334;2022-07-23T15:20:39;36.49;31.50
28175;SHT30;59417;44.788;10.334;2022-07-23T15:23:05;36.49;31.82
28175;SHT30;59417;44.788;10.334;2022-07-23T15:25:31;36.46;32.12
28175;SHT30;59417;44.788;10.334;2022-07-23T15:28:05;36.39;30.45
28175;SHT30;59417;44.788;10.334;2022-07-23T15:30:40;36.32;31.17
28175;SHT30;59417;44.788;10.334;2022-07-23T15:33:12;36.24;31.32
28175;SHT30;59417;44.788;10.334;2022-07-23T15:35:37;36.15;31.77
28175;SHT30;59417;44.788;10.334;2022-07-23T15:38:03;36.06;31.76
28175;SHT30;59417;44.788;10.334;2022-07-23T15:40:28;36.06;31.13
28175;SHT30;59417;44.788;10.334;2022-07-23T15:42:54;36.12;31.13
28175;SHT30;59417;44.788;10.334;2022-07-23T15:45:20;36.19;30.71
28175;SHT30;59417;44.788;10.334;2022-07-23T15:47:49;36.31;30.70
28175;SHT30;59417;44.788;10.334;2022-07-23T15:50:17;36.29;30.66
28175;SHT30;59417;44.788;10.334;2022-07-23T15:52:42;36.09;30.78
28175;SHT30;59417;44.788;10.334;2022-07-23T15:55:09;36.11;30.60
28175;SHT30;59417;44.788;10.334;2022-07-23T15:57:35;36.16;30.93
28175;SHT30;59417;44.788;10.334;2022-07-23T16:00:01;36.12;30.55
28175;SHT30;59417;44.788;10.334;2022-07-23T16:02:29;36.11;30.40
28175;SHT30;59417;44.788;10.334;2022-07-23T16:04:55;36.06;30.82